OISF  Fasa  Airport

Fasa, Iran

Add Bookmark
Status IATA
Operational FAZ
Latitude Longitude
28° 53' 30" N 53° 43' 23" E
28.891800 53.723301
Local (DST + 5) UTC (GMT + 4)
Mar 30, 2015 08:42 Mar 30, 2015 16:12
Sunrise-Sunset Local UTC
Begin Civil Twilight 06:22 01:52
Sunrise 06:46 02:16
Sunset 07:13 14:43
End Civil Twilight 07:36 15:06

Current Weather

METAR Observed VFR
OISF 301450Z 19006KT 9999 FEW040 BKN200 22/11 Q1014 Mon, Mar 30, 2015 @ 14:50 UTC
(1 Hour, 22 Minutes ago)
Visual Flight Rules
Wind Visibility Clouds Conditions
190° at 6 knots (11 kph) 10 km or more
  • Few at 4,000' AGL
  • Broken at 20,000' AGL
  • No significant weather
Temperatures Readings Precipitation
Current Temp 22°C (72°F)
Dewpoint 11°C (52°F)
Humidity 50%
Altimeter 29.94"Hg
Sea Level Pressure 1014mb
Field Elevation 4537.4'
None Recorded

Additional weather within a 185.2km radius of OISF

Map ICAO Location
OISS 131.3km W (303°)
OISL 149.8km S (154°)
OISR 176.7km S (197°)
OIBJ 179.3km S (229°)

24 Hour Weather History

Loading
-

24 Hour Weather Graphs

Loading
-

CheckWX.com is intended as a tool to help pilots better visualize weather data. It is not intended as a substitute for an official weather briefing obtained from a Flight Service Station. CheckWX.com does not meet the FAA requirements for an official pre-flight weather briefing. Therefore, it's important that pilots still call and obtain an official FSS pre-flight weather briefing.